Terminal Aerodrome Forecast
Issued by NWS

Home | Current Version | Previous Version | Text Only | Print | Product List | Glossary On
Versions: 1 2 3 4 5 6 7 8 9 10 11 12 13 14 15 16 17 18 19 20 21 22 23 24 25 26 27 28 29 30 31 32 33 34 35 36 37 38
000
FTUS45 KBOU 010636 AAA
TAFAPA
TAF AMD
KAPA 010636Z 0107/0206 01015G22KT 3/4SM -SHSN BKN005 OVC008
      TEMPO 0107/0110 1/4SM +SN VV001
     FM011100 05007KT P6SM SCT012 BKN022 BKN040
     FM011500 07007KT P6SM SCT020 BKN040
     FM011900 10007KT P6SM SCT040 BKN080
     FM020200 16007KT P6SM FEW060 SCT120 BKN200=

USA.gov is the U.S. government's official web portal to all federal, state and local government web resources and services.